createdAt,value
2019-06-07T00:00:57.582Z,65.71
2019-06-07T00:03:09.255Z,65.81
2019-06-07T00:05:13.245Z,66.04
2019-06-07T00:07:21.444Z,66.13
2019-06-07T00:09:22.966Z,66.14
2019-06-07T00:11:28.934Z,66.17
2019-06-07T00:13:32.683Z,66.20
2019-06-07T00:15:36.595Z,66.29
2019-06-07T00:17:40.752Z,66.36
2019-06-07T00:19:44.581Z,66.44
2019-06-07T00:23:54.029Z,66.56
2019-06-07T00:25:57.965Z,66.46
2019-06-07T00:28:01.875Z,66.40
2019-06-07T00:30:32.526Z,66.34
2019-06-07T00:32:14.992Z,66.38
2019-06-07T00:34:20.049Z,66.38
2019-06-07T00:36:23.873Z,66.33
2019-06-07T00:38:27.724Z,66.46
2019-06-07T00:40:32.321Z,66.45
2019-06-07T00:42:36.515Z,66.45
2019-06-07T00:44:40.295Z,66.46
2019-06-07T00:46:44.168Z,66.67
2019-06-07T00:48:48.274Z,66.73
2019-06-07T00:50:52.166Z,66.72
2019-06-07T00:53:14.858Z,66.70
2019-06-07T00:55:02.178Z,66.76
2019-06-07T00:57:05.957Z,66.81
2019-06-07T00:59:14.546Z,66.87
2019-06-07T01:01:19.099Z,66.99
2019-06-07T01:03:25.563Z,66.90
2019-06-07T01:05:31.449Z,66.69
2019-06-07T01:07:33.672Z,66.68
2019-06-07T01:09:37.622Z,66.67
2019-06-07T01:11:41.458Z,66.71
2019-06-07T01:13:45.355Z,66.79
2019-06-07T01:15:49.738Z,66.81
2019-06-07T01:18:33.130Z,66.87
2019-06-07T01:19:59.431Z,66.89
2019-06-07T01:22:03.262Z,66.92
2019-06-07T01:24:12.270Z,66.92
2019-06-07T01:26:12.901Z,66.89
2019-06-07T01:28:20.611Z,66.91
2019-06-07T01:30:26.677Z,66.94
2019-06-07T01:32:31.844Z,66.97
2019-06-07T01:34:35.868Z,67.01
2019-06-07T01:36:39.849Z,67.07
2019-06-07T01:38:43.728Z,67.05
2019-06-07T01:40:48.951Z,67.02
2019-06-07T01:42:52.763Z,66.99
2019-06-07T01:44:56.604Z,66.95
2019-06-07T01:47:00.599Z,67.06
2019-06-07T01:49:04.553Z,67.18
2019-06-07T01:51:08.331Z,67.25
2019-06-07T01:53:12.257Z,67.24
2019-06-07T01:55:18.801Z,67.26
2019-06-07T01:57:40.730Z,67.21
2019-06-07T01:59:31.365Z,67.08
2019-06-07T02:01:35.557Z,67.05
2019-06-07T02:03:39.539Z,67.03
2019-06-07T02:05:43.464Z,66.96
2019-06-07T02:07:47.404Z,66.95
2019-06-07T02:09:51.269Z,66.96
2019-06-07T02:11:55.176Z,67.06
2019-06-07T02:13:59.083Z,67.18
2019-06-07T02:16:03.211Z,67.24
2019-06-07T02:18:07.214Z,67.30
2019-06-07T02:20:11.344Z,67.31
2019-06-07T02:22:15.063Z,67.32
2019-06-07T02:24:21.300Z,67.34
2019-06-07T02:26:25.426Z,67.40
2019-06-07T02:28:44.369Z,67.70
2019-06-07T02:30:44.634Z,67.94
2019-06-07T02:32:41.180Z,68.12
2019-06-07T02:34:45.087Z,68.31
2019-06-07T02:36:48.972Z,68.48
2019-06-07T02:38:52.885Z,68.64
2019-06-07T02:40:56.835Z,68.76
2019-06-07T02:43:00.684Z,68.91
2019-06-07T02:45:05.642Z,69.01
2019-06-07T02:47:09.504Z,69.06
2019-06-07T02:49:19.333Z,69.10
2019-06-07T02:51:26.519Z,69.09
2019-06-07T02:53:30.796Z,69.19
2019-06-07T02:56:10.705Z,69.21
2019-06-07T02:57:42.120Z,69.23
2019-06-07T03:00:06.507Z,69.29
2019-06-07T03:01:54.323Z,69.27
2019-06-07T03:03:58.524Z,69.26
2019-06-07T03:06:03.294Z,69.26
2019-06-07T03:08:10.129Z,69.33
2019-06-07T03:10:14.894Z,69.37
2019-06-07T03:12:22.174Z,69.39
2019-06-07T03:14:28.601Z,69.42
2019-06-07T03:16:39.427Z,69.44
2019-06-07T03:19:05.889Z,69.49
2019-06-07T03:21:13.723Z,69.59
2019-06-07T03:23:18.364Z,69.59
2019-06-07T03:25:22.316Z,69.75
2019-06-07T03:27:36.117Z,69.79
2019-06-07T03:29:33.817Z,69.80
2019-06-07T03:31:43.377Z,69.87
2019-06-07T03:33:45.487Z,69.93
2019-06-07T03:35:48.321Z,69.97
2019-06-07T03:37:52.216Z,70.01
2019-06-07T03:39:56.132Z,70.01
2019-06-07T03:42:06.383Z,69.99
2019-06-07T03:44:05.994Z,70.01
2019-06-07T03:46:09.984Z,70.02
2019-06-07T03:48:13.828Z,70.03
2019-06-07T03:50:17.733Z,69.99
2019-06-07T03:52:22.639Z,69.94
2019-06-07T03:54:27.250Z,69.93
2019-06-07T03:56:31.882Z,69.92
2019-06-07T03:58:47.842Z,69.94
2019-06-07T04:00:43.402Z,69.97
2019-06-07T04:02:50.638Z,69.98
2019-06-07T04:04:54.439Z,70.04
2019-06-07T04:06:58.379Z,70.00
2019-06-07T04:09:02.355Z,69.99
2019-06-07T04:11:06.251Z,69.95
2019-06-07T04:13:10.139Z,69.91
2019-06-07T04:15:14.636Z,69.86
2019-06-07T04:17:18.534Z,69.86
2019-06-07T04:19:22.395Z,69.84
2019-06-07T04:21:26.319Z,69.78
2019-06-07T04:23:33.124Z,69.84
2019-06-07T04:25:39.511Z,69.80
2019-06-07T04:27:41.508Z,69.83
2019-06-07T04:30:05.664Z,69.86
2019-06-07T04:31:51.019Z,69.91
2019-06-07T04:33:54.942Z,69.89
2019-06-07T04:35:59.891Z,69.87
2019-06-07T04:38:03.764Z,69.79
2019-06-07T04:40:07.793Z,69.76
2019-06-07T04:42:13.190Z,69.68
2019-06-07T04:44:19.300Z,69.57
2019-06-07T04:46:24.416Z,69.39
2019-06-07T04:48:32.769Z,69.23
2019-06-07T04:50:40.325Z,69.11
2019-06-07T04:52:45.631Z,69.07
2019-06-07T04:54:48.480Z,68.91
2019-06-07T04:56:52.412Z,69.03
2019-06-07T04:58:56.636Z,69.18
2019-06-07T05:01:03.543Z,69.42
2019-06-07T05:03:06.974Z,69.39
2019-06-07T05:05:11.282Z,69.28
2019-06-07T05:07:15.204Z,69.16
2019-06-07T05:09:19.055Z,69.04
2019-06-07T05:11:22.940Z,68.95
2019-06-07T05:13:26.938Z,68.74
2019-06-07T05:15:32.054Z,68.54
2019-06-07T05:17:37.044Z,68.38
2019-06-07T05:19:44.578Z,68.18
2019-06-07T05:22:02.675Z,67.97
2019-06-07T05:24:06.612Z,67.86
2019-06-07T05:25:58.707Z,67.75
2019-06-07T05:28:02.624Z,67.65
2019-06-07T05:30:13.728Z,67.50
2019-06-07T05:32:15.388Z,67.11
2019-06-07T05:34:19.264Z,67.03
2019-06-07T05:36:23.223Z,66.91
2019-06-07T05:38:27.042Z,66.87
2019-06-07T05:40:38.733Z,66.79
2019-06-07T05:42:46.610Z,66.66
2019-06-07T05:44:49.075Z,66.71
2019-06-07T05:46:52.914Z,66.70
2019-06-07T05:48:56.795Z,66.65
2019-06-07T05:51:00.703Z,66.49
2019-06-07T05:53:05.590Z,66.53
2019-06-07T05:55:10.334Z,66.30
2019-06-07T05:57:14.221Z,66.15
2019-06-07T05:59:18.216Z,66.13
2019-06-07T06:01:45.004Z,66.19
2019-06-07T06:03:27.653Z,65.74
2019-06-07T06:05:36.334Z,65.60
2019-06-07T06:07:39.516Z,65.69
2019-06-07T06:09:43.823Z,65.68
2019-06-07T06:11:59.031Z,65.67
2019-06-07T06:14:06.526Z,65.69
2019-06-07T06:16:02.035Z,65.65
2019-06-07T06:18:05.442Z,65.66
2019-06-07T06:20:10.193Z,65.55
2019-06-07T06:22:13.991Z,65.46
2019-06-07T06:24:17.925Z,65.55
2019-06-07T06:26:21.860Z,65.70
2019-06-07T06:28:25.713Z,65.79
2019-06-07T06:30:29.682Z,65.84
2019-06-07T06:32:47.207Z,65.64
2019-06-07T06:34:42.954Z,65.38
2019-06-07T06:36:47.800Z,65.01
2019-06-07T06:38:51.549Z,64.83
2019-06-07T06:41:14.606Z,64.48
2019-06-07T06:43:01.295Z,63.98
2019-06-07T06:45:06.970Z,63.32
2019-06-07T06:47:10.882Z,63.23
2019-06-07T06:49:14.859Z,63.17
2019-06-07T06:51:18.711Z,62.83
2019-06-07T06:53:22.665Z,62.96
2019-06-07T06:55:29.187Z,63.03
2019-06-07T06:57:33.065Z,63.24
2019-06-07T06:59:40.842Z,63.53
2019-06-07T07:01:42.666Z,63.45
2019-06-07T07:04:09.631Z,63.67
2019-06-07T07:05:54.924Z,63.14
2019-06-07T07:07:59.219Z,62.44
2019-06-07T07:10:04.103Z,62.25
2019-06-07T07:12:12.751Z,62.13
2019-06-07T07:14:13.959Z,61.91
2019-06-07T07:16:17.833Z,61.94
2019-06-07T07:18:21.759Z,61.90
2019-06-07T07:20:25.782Z,61.51
2019-06-07T07:22:29.922Z,61.30
2019-06-07T07:24:33.861Z,60.72
2019-06-07T07:26:37.874Z,60.70
2019-06-07T07:28:43.019Z,60.46
2019-06-07T07:30:52.715Z,59.74
2019-06-07T07:32:59.279Z,59.32
2019-06-07T07:35:00.759Z,58.96
2019-06-07T07:37:05.844Z,58.62
2019-06-07T07:39:09.857Z,58.72
2019-06-07T07:41:15.451Z,58.62
2019-06-07T07:43:19.307Z,58.71
2019-06-07T07:45:23.167Z,58.76
2019-06-07T07:47:27.054Z,58.47
2019-06-07T07:49:31.010Z,57.99
2019-06-07T07:51:34.888Z,57.88
2019-06-07T07:53:50.619Z,57.75
2019-06-07T07:55:45.080Z,57.45
2019-06-07T07:57:58.138Z,57.13
2019-06-07T08:00:17.759Z,56.94
2019-06-07T08:02:01.375Z,56.48
2019-06-07T08:04:05.454Z,56.33
2019-06-07T08:06:09.430Z,56.70
2019-06-07T08:08:13.264Z,56.51
2019-06-07T08:10:19.022Z,55.76
2019-06-07T08:12:22.928Z,53.65
2019-06-07T08:14:26.826Z,53.21
2019-06-07T08:16:30.829Z,52.59
2019-06-07T08:18:34.728Z,51.94
2019-06-07T08:20:38.573Z,50.85
2019-06-07T08:22:42.521Z,50.85
2019-06-07T08:24:50.034Z,51.17
2019-06-07T08:27:13.054Z,50.47
2019-06-07T08:29:02.489Z,49.98
2019-06-07T08:31:07.384Z,48.77
2019-06-07T08:33:25.237Z,48.75
2019-06-07T08:36:02.393Z,47.68
2019-06-07T08:37:21.600Z,47.70
2019-06-07T08:39:25.349Z,47.54
2019-06-07T08:41:29.135Z,47.37
2019-06-07T08:43:32.944Z,47.03
2019-06-07T08:45:36.934Z,46.43
2019-06-07T08:47:40.764Z,45.61
2019-06-07T08:49:44.653Z,45.02
2019-06-07T08:51:48.600Z,44.94
2019-06-07T08:54:09.336Z,44.43
2019-06-07T08:56:05.813Z,44.54
2019-06-07T08:58:08.540Z,45.06
2019-06-07T09:00:42.595Z,44.43
2019-06-07T09:02:23.820Z,44.19
2019-06-07T09:04:22.436Z,44.02
2019-06-07T09:07:02.422Z,43.70
2019-06-07T09:08:31.883Z,44.13
2019-06-07T09:10:35.857Z,43.56
2019-06-07T09:12:39.894Z,43.78
2019-06-07T09:14:59.709Z,43.28
2019-06-07T09:16:49.484Z,42.90
2019-06-07T09:18:57.039Z,42.50
2019-06-07T09:21:01.219Z,42.48
2019-06-07T09:23:15.069Z,42.36
2019-06-07T09:25:20.714Z,42.00
2019-06-07T09:27:16.282Z,41.25
2019-06-07T09:29:20.436Z,40.83
2019-06-07T09:31:24.352Z,40.80
2019-06-07T09:33:28.135Z,40.66
2019-06-07T09:35:32.260Z,40.46
2019-06-07T09:38:04.161Z,40.26
2019-06-07T09:39:42.344Z,40.33
2019-06-07T09:41:49.863Z,40.14
2019-06-07T09:44:04.591Z,39.20
2019-06-07T09:45:58.833Z,38.41
2019-06-07T09:48:10.092Z,37.73
2019-06-07T09:50:12.007Z,37.48
2019-06-07T09:52:14.561Z,37.40
2019-06-07T09:56:24.076Z,37.42
2019-06-07T09:58:51.030Z,37.43
2019-06-07T10:00:40.949Z,37.15
2019-06-07T10:02:39.457Z,36.64
2019-06-07T10:04:43.331Z,36.50
2019-06-07T10:06:47.242Z,36.21
2019-06-07T10:10:56.679Z,36.13
2019-06-07T10:13:01.721Z,35.76
2019-06-07T10:15:07.045Z,35.49
2019-06-07T10:17:11.019Z,35.27
2019-06-07T10:19:14.941Z,35.11
2019-06-07T10:21:18.889Z,34.69
2019-06-07T10:23:22.782Z,34.75
2019-06-07T10:25:26.674Z,35.17
2019-06-07T10:27:30.627Z,35.41
2019-06-07T10:29:34.480Z,35.36
2019-06-07T10:31:38.481Z,35.02
2019-06-07T10:33:42.428Z,34.11
2019-06-07T10:35:46.272Z,34.19
2019-06-07T10:37:50.083Z,34.11
2019-06-07T10:39:54.107Z,33.83
2019-06-07T10:41:58.096Z,33.75
2019-06-07T10:44:03.225Z,33.54
2019-06-07T10:46:07.634Z,33.58
2019-06-07T10:48:11.829Z,33.71
2019-06-07T10:50:16.204Z,33.45
2019-06-07T10:52:20.065Z,33.79
2019-06-07T10:54:28.170Z,33.73
2019-06-07T10:56:29.520Z,33.87
2019-06-07T10:58:34.331Z,33.76
2019-06-07T11:00:38.346Z,32.93
2019-06-07T11:02:42.293Z,32.73
2019-06-07T11:04:46.207Z,32.57
2019-06-07T11:06:50.141Z,32.17
2019-06-07T11:08:54.008Z,31.44
2019-06-07T11:10:57.860Z,31.74
2019-06-07T11:13:01.794Z,31.49
2019-06-07T11:15:06.714Z,31.47
2019-06-07T11:17:11.330Z,30.67
2019-06-07T11:19:17.905Z,30.37
2019-06-07T11:21:21.114Z,30.23
2019-06-07T11:23:24.998Z,29.81
2019-06-07T11:25:28.895Z,29.94
2019-06-07T11:27:32.861Z,30.32
2019-06-07T11:29:36.715Z,30.04
2019-06-07T11:31:40.601Z,30.34
2019-06-07T11:33:44.618Z,30.20
2019-06-07T11:35:48.501Z,30.37
2019-06-07T11:37:52.479Z,30.09
2019-06-07T11:39:56.452Z,30.33
2019-06-07T11:42:00.329Z,29.85
2019-06-07T11:44:04.663Z,30.32
2019-06-07T11:46:08.847Z,29.85
2019-06-07T11:48:13.469Z,29.69
2019-06-07T11:50:17.681Z,29.87
2019-06-07T11:52:21.479Z,28.99
2019-06-07T11:54:25.433Z,30.10
2019-06-07T11:56:29.818Z,29.93
2019-06-07T11:58:33.646Z,29.96
2019-06-07T12:00:37.594Z,29.14
2019-06-07T12:02:41.521Z,30.08
2019-06-07T12:04:45.271Z,30.10
2019-06-07T12:06:49.150Z,30.36
2019-06-07T12:08:52.947Z,30.29
2019-06-07T12:10:56.844Z,29.70
2019-06-07T12:13:00.757Z,30.17
2019-06-07T12:15:05.908Z,30.07
2019-06-07T12:17:11.172Z,29.30
2019-06-07T12:19:15.564Z,29.78
2019-06-07T12:21:19.914Z,29.84
2019-06-07T12:23:23.953Z,29.91
2019-06-07T12:25:27.920Z,29.70
2019-06-07T12:27:31.780Z,29.21
2019-06-07T12:29:35.647Z,29.61
2019-06-07T12:31:39.588Z,29.21
2019-06-07T12:33:43.508Z,28.99
2019-06-07T12:35:47.369Z,29.07
2019-06-07T12:37:51.268Z,28.35
2019-06-07T12:39:55.212Z,28.15
2019-06-07T12:41:59.185Z,27.67
2019-06-07T12:44:03.230Z,27.44
2019-06-07T12:46:07.109Z,27.47
2019-06-07T12:48:11.072Z,27.10
2019-06-07T12:50:15.550Z,27.07
2019-06-07T12:52:21.032Z,26.54
2019-06-07T12:54:25.082Z,25.88
2019-06-07T12:56:28.884Z,24.10
2019-06-07T12:58:36.119Z,24.08
2019-06-07T13:00:38.495Z,23.19
2019-06-07T13:02:42.502Z,22.21
2019-06-07T13:04:46.604Z,22.39
2019-06-07T13:06:50.432Z,22.14
2019-06-07T13:08:54.354Z,21.39
2019-06-07T13:11:14.270Z,20.56
2019-06-07T13:13:03.978Z,21.13
2019-06-07T13:15:08.088Z,21.21
2019-06-07T13:17:12.034Z,21.38
2019-06-07T13:19:16.402Z,22.40
2019-06-07T13:21:20.353Z,23.50
2019-06-07T13:23:24.431Z,24.58
2019-06-07T13:25:44.116Z,25.25
2019-06-07T13:27:34.133Z,25.93
2019-06-07T13:29:37.904Z,26.90
2019-06-07T13:31:41.818Z,27.35
2019-06-07T13:33:45.721Z,27.31
2019-06-07T13:35:49.650Z,27.15
2019-06-07T13:37:53.590Z,27.36
2019-06-07T13:39:57.440Z,27.68
2019-06-07T13:42:01.330Z,27.82
2019-06-07T13:44:05.301Z,27.59
2019-06-07T13:46:12.891Z,27.67
2019-06-07T13:48:14.681Z,27.55
2019-06-07T13:50:19.594Z,27.76
2019-06-07T13:52:23.496Z,28.48
2019-06-07T13:54:27.825Z,28.60
2019-06-07T13:56:31.868Z,28.57
2019-06-07T13:58:35.728Z,28.44
2019-06-07T14:00:39.544Z,29.18
2019-06-07T14:02:43.461Z,29.50
2019-06-07T14:04:47.330Z,29.20
2019-06-07T14:06:51.073Z,28.52
2019-06-07T14:08:54.936Z,28.46
2019-06-07T14:10:58.841Z,28.95
2019-06-07T14:13:03.075Z,29.38
2019-06-07T14:15:07.988Z,29.74
2019-06-07T14:17:11.770Z,29.78
2019-06-07T14:19:15.698Z,30.12
2019-06-07T14:21:20.392Z,29.93
2019-06-07T14:23:42.345Z,29.76
2019-06-07T14:25:31.321Z,29.24
2019-06-07T14:27:35.233Z,29.43
2019-06-07T14:29:39.343Z,30.01
2019-06-07T14:31:43.208Z,29.29
2019-06-07T14:33:47.145Z,29.74
2019-06-07T14:35:51.033Z,30.43
2019-06-07T14:37:54.945Z,29.10
2019-06-07T14:39:58.887Z,29.25
2019-06-07T14:42:08.956Z,29.69
2019-06-07T14:44:08.289Z,29.90
2019-06-07T14:46:12.224Z,29.89
2019-06-07T14:48:16.097Z,30.41
2019-06-07T14:50:20.466Z,30.96
2019-06-07T14:52:24.435Z,30.68
2019-06-07T14:54:32.273Z,30.33
2019-06-07T14:56:35.217Z,30.59
2019-06-07T14:58:43.283Z,30.35
2019-06-07T15:00:45.212Z,30.58
2019-06-07T15:02:48.986Z,30.11
2019-06-07T15:04:54.501Z,30.65
2019-06-07T15:06:58.296Z,30.96
2019-06-07T15:09:02.091Z,31.04
2019-06-07T15:11:06.016Z,31.04
2019-06-07T15:13:10.002Z,30.77
2019-06-07T15:15:13.878Z,31.03
2019-06-07T15:17:17.720Z,30.54
2019-06-07T15:19:23.999Z,31.23
2019-06-07T15:21:27.226Z,31.00
2019-06-07T15:23:31.193Z,30.27
2019-06-07T15:25:35.535Z,30.88
2019-06-07T15:27:39.504Z,29.26
2019-06-07T15:29:43.438Z,29.48
2019-06-07T15:31:47.313Z,29.18
2019-06-07T15:33:51.203Z,29.24
2019-06-07T15:35:55.109Z,29.52
2019-06-07T15:37:59.014Z,29.88
2019-06-07T15:40:03.056Z,30.09
2019-06-07T15:42:06.906Z,30.52
2019-06-07T15:44:10.802Z,30.11
2019-06-07T15:46:14.622Z,30.58
2019-06-07T15:48:18.540Z,30.39
2019-06-07T15:50:22.576Z,30.08
2019-06-07T15:52:26.414Z,30.23
2019-06-07T15:54:30.380Z,30.06
2019-06-07T15:56:34.673Z,29.91
2019-06-07T15:58:39.403Z,29.67
2019-06-07T16:00:43.401Z,29.59
2019-06-07T16:02:47.287Z,30.37
2019-06-07T16:04:51.192Z,30.26
2019-06-07T16:06:55.113Z,30.87
2019-06-07T16:08:59.042Z,30.61
2019-06-07T16:11:02.965Z,29.54
2019-06-07T16:13:06.823Z,29.91
2019-06-07T16:15:13.469Z,30.12
2019-06-07T16:17:18.410Z,29.92
2019-06-07T16:19:22.232Z,29.78
2019-06-07T16:21:26.126Z,29.91
2019-06-07T16:23:30.049Z,29.45
2019-06-07T16:25:34.036Z,29.93
2019-06-07T16:27:38.661Z,30.29
2019-06-07T16:29:43.017Z,30.20
2019-06-07T16:31:46.883Z,30.21
2019-06-07T16:33:50.850Z,30.25
2019-06-07T16:35:54.675Z,30.65
2019-06-07T16:37:58.586Z,30.39
2019-06-07T16:40:02.553Z,30.57
2019-06-07T16:42:06.553Z,30.56
2019-06-07T16:44:10.301Z,31.23
2019-06-07T16:46:14.308Z,31.00
2019-06-07T16:48:18.110Z,31.57
2019-06-07T16:50:22.154Z,31.46
2019-06-07T16:52:25.929Z,31.92
2019-06-07T16:54:29.901Z,31.71
2019-06-07T16:56:33.786Z,31.54
2019-06-07T16:58:37.942Z,31.67
2019-06-07T17:00:42.237Z,31.67
2019-06-07T17:02:47.430Z,31.81
2019-06-07T17:04:52.027Z,31.65
2019-06-07T17:06:55.927Z,31.65
2019-06-07T17:08:59.693Z,31.92
2019-06-07T17:11:03.589Z,32.22
2019-06-07T17:13:07.488Z,32.09
2019-06-07T17:15:12.184Z,31.98
2019-06-07T17:17:16.050Z,31.66
2019-06-07T17:19:20.018Z,30.58
2019-06-07T17:21:23.856Z,31.15
2019-06-07T17:23:27.931Z,31.32
2019-06-07T17:25:31.950Z,31.68
2019-06-07T17:27:35.893Z,31.71
2019-06-07T17:29:39.819Z,31.76
2019-06-07T17:31:44.761Z,31.91
2019-06-07T17:33:50.059Z,31.68
2019-06-07T17:35:54.133Z,31.69
2019-06-07T17:37:58.114Z,31.43
2019-06-07T17:40:01.938Z,31.14
2019-06-07T17:42:05.910Z,31.06
2019-06-07T17:44:09.774Z,31.14
2019-06-07T17:46:13.751Z,31.32
2019-06-07T17:48:17.803Z,31.26
2019-06-07T17:50:22.442Z,31.28
2019-06-07T17:52:28.178Z,31.07
2019-06-07T17:54:32.067Z,31.29
2019-06-07T17:56:36.029Z,30.81
2019-06-07T17:58:39.900Z,31.07
2019-06-07T18:00:49.329Z,31.32
2019-06-07T18:02:53.209Z,31.60
2019-06-07T18:04:57.099Z,31.89
2019-06-07T18:07:01.262Z,32.08
2019-06-07T18:09:07.218Z,32.55
2019-06-07T18:11:11.271Z,32.92
2019-06-07T18:13:15.370Z,32.94
2019-06-07T18:15:22.658Z,33.06
2019-06-07T18:17:34.521Z,33.20
2019-06-07T18:19:32.089Z,33.60
2019-06-07T18:21:35.913Z,33.71
2019-06-07T18:23:39.936Z,33.62
2019-06-07T18:25:43.810Z,33.68
2019-06-07T18:27:48.510Z,33.43
2019-06-07T18:29:52.731Z,33.42
2019-06-07T18:31:56.688Z,33.27
2019-06-07T18:34:00.648Z,33.31
2019-06-07T18:36:04.915Z,33.36
2019-06-07T18:38:10.940Z,33.54
2019-06-07T18:40:14.417Z,33.71
2019-06-07T18:42:18.314Z,33.77
2019-06-07T18:44:22.163Z,33.95
2019-06-07T18:46:26.046Z,34.11
2019-06-07T18:48:30.052Z,34.28
2019-06-07T18:50:33.924Z,34.38
2019-06-07T18:52:39.066Z,34.43
2019-06-07T18:54:43.106Z,34.56
2019-06-07T18:56:47.107Z,34.60
2019-06-07T18:58:51.097Z,34.72
2019-06-07T19:00:55.539Z,34.82
2019-06-07T19:02:59.342Z,35.01
2019-06-07T19:05:03.428Z,35.15
2019-06-07T19:07:07.355Z,35.42
2019-06-07T19:09:11.273Z,35.67
2019-06-07T19:11:15.172Z,35.71
2019-06-07T19:13:19.105Z,35.99
2019-06-07T19:15:24.408Z,35.98
2019-06-07T19:17:28.340Z,35.99
2019-06-07T19:19:32.220Z,36.01
2019-06-07T19:21:36.146Z,36.42
2019-06-07T19:23:40.039Z,37.54
2019-06-07T19:25:43.946Z,38.18
2019-06-07T19:27:47.907Z,38.31
2019-06-07T19:29:52.741Z,38.36
2019-06-07T19:31:57.033Z,38.31
2019-06-07T19:34:01.370Z,38.27
2019-06-07T19:36:05.367Z,38.27
2019-06-07T19:38:10.045Z,38.86
2019-06-07T19:40:14.776Z,39.36
2019-06-07T19:42:18.664Z,39.76
2019-06-07T19:44:22.637Z,42.16
2019-06-07T19:46:26.452Z,42.90
2019-06-07T19:48:30.390Z,43.42
2019-06-07T19:50:34.649Z,43.39
2019-06-07T19:52:38.667Z,43.20
2019-06-07T19:54:42.774Z,43.06
2019-06-07T19:56:46.610Z,43.20
2019-06-07T19:58:50.583Z,43.88
2019-06-07T20:00:55.531Z,44.58
2019-06-07T20:02:59.924Z,44.57
2019-06-07T20:05:06.792Z,43.87
2019-06-07T20:07:09.667Z,44.12
2019-06-07T20:09:13.494Z,44.16
2019-06-07T20:11:17.386Z,44.05
2019-06-07T20:13:21.307Z,43.74
2019-06-07T20:15:29.187Z,43.65
2019-06-07T20:17:30.739Z,43.56
2019-06-07T20:19:34.680Z,43.48
2019-06-07T20:21:38.576Z,43.26
2019-06-07T20:23:42.501Z,42.73
2019-06-07T20:25:46.460Z,42.37
2019-06-07T20:27:50.275Z,41.68
2019-06-07T20:29:54.172Z,41.38
2019-06-07T20:31:58.287Z,41.28
2019-06-07T20:34:04.205Z,41.06
2019-06-07T20:36:08.986Z,40.81
2019-06-07T20:38:13.144Z,40.37
2019-06-07T20:40:24.111Z,40.28
2019-06-07T20:42:22.967Z,39.80
2019-06-07T20:44:26.871Z,39.71
2019-06-07T20:46:30.748Z,39.51
2019-06-07T20:48:35.120Z,39.72
2019-06-07T20:50:39.072Z,39.71
2019-06-07T20:52:42.884Z,39.51
2019-06-07T20:54:46.835Z,39.60
2019-06-07T20:56:50.823Z,39.56
2019-06-07T20:58:54.615Z,39.77
2019-06-07T21:00:58.642Z,39.82
2019-06-07T21:03:03.288Z,39.78
2019-06-07T21:05:07.795Z,39.89
2019-06-07T21:07:11.647Z,39.93
2019-06-07T21:09:15.620Z,39.93
2019-06-07T21:11:19.413Z,39.77
2019-06-07T21:13:23.415Z,39.67
2019-06-07T21:15:27.340Z,39.58
2019-06-07T21:17:31.342Z,39.84
2019-06-07T21:19:35.344Z,39.96
2019-06-07T21:21:39.147Z,40.06
2019-06-07T21:23:43.128Z,40.09
2019-06-07T21:25:47.377Z,40.31
2019-06-07T21:27:51.299Z,40.24
2019-06-07T21:29:55.210Z,40.50
2019-06-07T21:31:59.109Z,41.10
2019-06-07T21:34:03.749Z,41.49
2019-06-07T21:36:11.863Z,41.96
2019-06-07T21:38:15.785Z,42.23
2019-06-07T21:40:19.998Z,42.56
2019-06-07T21:42:24.439Z,42.61
2019-06-07T21:44:28.250Z,42.81
2019-06-07T21:46:32.159Z,42.75
2019-06-07T21:48:36.053Z,42.87
2019-06-07T21:50:39.952Z,44.93
2019-06-07T21:52:43.843Z,46.92
2019-06-07T21:54:47.778Z,46.86
2019-06-07T21:56:51.647Z,47.95
2019-06-07T21:58:55.551Z,47.99
2019-06-07T22:01:16.288Z,47.99
2019-06-07T22:03:20.228Z,48.63
2019-06-07T22:05:24.079Z,48.73
2019-06-07T22:07:27.982Z,48.73
2019-06-07T22:09:31.887Z,48.61
2019-06-07T22:11:35.671Z,48.79
2019-06-07T22:13:39.494Z,49.32
2019-06-07T22:15:44.459Z,51.32
2019-06-07T22:17:48.334Z,51.32
2019-06-07T22:19:52.231Z,52.71
2019-06-07T22:22:02.672Z,54.68
2019-06-07T22:24:01.677Z,56.65
2019-06-07T22:26:06.993Z,58.09
2019-06-07T22:28:12.536Z,59.56
2019-06-07T22:30:16.826Z,61.10
2019-06-07T22:32:20.763Z,64.73
2019-06-07T22:34:24.704Z,65.11
2019-06-07T22:36:28.602Z,65.96
2019-06-07T22:38:32.599Z,66.37
2019-06-07T22:40:36.469Z,66.51
2019-06-07T22:42:40.356Z,66.48
2019-06-07T22:44:44.200Z,65.27
2019-06-07T22:46:48.191Z,64.03
2019-06-07T22:48:52.080Z,63.04
2019-06-07T22:50:57.026Z,62.29
2019-06-07T22:53:00.849Z,62.29
2019-06-07T22:55:05.204Z,62.53
2019-06-07T22:57:16.645Z,61.88
2019-06-07T22:59:20.725Z,62.20
2019-06-07T23:01:24.537Z,62.64
2019-06-07T23:03:28.359Z,63.67
2019-06-07T23:05:32.275Z,72.48
2019-06-07T23:07:36.163Z,75.38
2019-06-07T23:09:40.092Z,76.62
2019-06-07T23:11:44.039Z,76.88
2019-06-07T23:13:47.854Z,76.70
2019-06-07T23:15:51.785Z,76.56
2019-06-07T23:17:55.826Z,75.71
2019-06-07T23:20:01.862Z,75.39
2019-06-07T23:22:05.836Z,75.26
2019-06-07T23:24:09.834Z,75.04
2019-06-07T23:26:14.153Z,75.56
2019-06-07T23:28:18.770Z,76.88
2019-06-07T23:30:24.114Z,77.01
2019-06-07T23:32:28.037Z,76.96
2019-06-07T23:34:31.831Z,77.55
2019-06-07T23:36:35.883Z,76.77
2019-06-07T23:38:39.658Z,76.81
2019-06-07T23:40:43.691Z,76.87
2019-06-07T23:42:48.675Z,76.78
2019-06-07T23:44:52.581Z,76.39
2019-06-07T23:47:10.408Z,76.38
2019-06-07T23:49:02.047Z,75.99
2019-06-07T23:51:06.020Z,75.91
2019-06-07T23:53:09.907Z,75.60
2019-06-07T23:55:13.951Z,75.51
2019-06-07T23:57:19.201Z,75.85
2019-06-07T23:59:23.421Z,76.53
